Time;durP1;ratioP1;P1;durP2;ratioP2;P2;SDS_P1;SDS_P2;PMS_P1;PMS_P2;Temp;Humidity;BMP_temperature;BMP_pressure;BME280_temperature;BME280_humidity;BME280_pressure;Samples;Min_cycle;Max_cycle;Signal;HPM_P1;HPM_P2
2022/02/28 00:00:36;;;;;;;12.77;6.03;;;;;;;;;;5074341;28;20043;-79
2022/02/28 00:03:04;;;;;;;12.88;5.95;;;;;;;;;;5068667;28;20044;-78
2022/02/28 00:05:33;;;;;;;11.50;5.38;;;;;;;;;;5070432;28;20131;-79
2022/02/28 00:08:25;;;;;;;10.90;5.72;;;;;;;;;;5071136;28;20056;-79
2022/02/28 00:10:53;;;;;;;14.45;5.78;;;;;;;;;;5069653;28;20106;-77
2022/02/28 00:13:21;;;;;;;10.88;5.43;;;;;;;;;;5075668;28;20052;-73
2022/02/28 00:15:48;;;;;;;10.10;5.20;;;;;;;;;;5070138;28;20043;-77
2022/02/28 00:18:16;;;;;;;11.25;5.57;;;;;;;;;;5077314;28;20166;-80
2022/02/28 00:20:45;;;;;;;13.20;5.95;;;;;;;;;;5070207;28;20087;-76
2022/02/28 00:23:13;;;;;;;10.25;5.40;;;;;;;;;;5073024;28;20055;-79
2022/02/28 00:25:41;;;;;;;12.95;5.65;;;;;;;;;;5071178;28;20044;-79
2022/02/28 00:28:09;;;;;;;12.18;5.53;;;;;;;;;;5074288;28;20534;-79
2022/02/28 00:30:37;;;;;;;15.40;5.97;;;;;;;;;;5069486;28;20135;-76
2022/02/28 00:33:05;;;;;;;12.98;6.03;;;;;;;;;;5070413;28;20048;-80
2022/02/28 00:35:35;;;;;;;10.57;5.35;;;;;;;;;;5070549;28;20463;-78
2022/02/28 00:38:04;;;;;;;16.20;5.78;;;;;;;;;;5072996;28;20277;-78
2022/02/28 00:40:32;;;;;;;11.38;6.03;;;;;;;;;;5075749;28;20056;-79
2022/02/28 00:43:00;;;;;;;13.48;6.40;;;;;;;;;;5073160;28;20093;-78
2022/02/28 00:45:28;;;;;;;9.82;5.10;;;;;;;;;;5072503;28;20070;-78
2022/02/28 00:47:55;;;;;;;12.85;6.03;;;;;;;;;;5074952;28;20056;-78
2022/02/28 00:50:23;;;;;;;11.80;5.80;;;;;;;;;;5072185;28;20110;-78
2022/02/28 00:52:51;;;;;;;12.27;5.88;;;;;;;;;;5073356;28;20048;-77
2022/02/28 00:55:20;;;;;;;12.38;5.10;;;;;;;;;;5076572;28;20586;-77
2022/02/28 00:57:47;;;;;;;11.23;4.82;;;;;;;;;;5075797;28;20061;-77
2022/02/28 01:00:17;;;;;;;13.10;5.78;;;;;;;;;;5072414;28;20239;-77
2022/02/28 01:02:45;;;;;;;14.93;5.75;;;;;;;;;;5071291;28;20044;-77
2022/02/28 01:05:14;;;;;;;13.77;6.20;;;;;;;;;;5076301;28;20052;-77
2022/02/28 01:07:44;;;;;;;12.35;5.88;;;;;;;;;;5073124;28;20066;-78
2022/02/28 01:10:13;;;;;;;13.60;5.90;;;;;;;;;;5074996;28;20052;-79
2022/02/28 01:12:42;;;;;;;12.13;5.72;;;;;;;;;;5072246;28;20545;-79
2022/02/28 01:15:10;;;;;;;15.65;5.90;;;;;;;;;;5075966;28;20155;-79
2022/02/28 01:17:38;;;;;;;13.73;6.22;;;;;;;;;;5071677;28;20101;-77
2022/02/28 01:20:07;;;;;;;11.50;5.60;;;;;;;;;;5067052;28;20062;-77
2022/02/28 01:22:35;;;;;;;13.40;6.55;;;;;;;;;;5070881;28;20138;-77
2022/02/28 01:25:08;;;;;;;13.40;6.00;;;;;;;;;;5069821;28;20071;-77
2022/02/28 01:27:36;;;;;;;13.05;5.97;;;;;;;;;;5072161;28;20507;-77
2022/02/28 01:30:06;;;;;;;10.68;5.55;;;;;;;;;;5073466;28;20058;-77
2022/02/28 01:32:57;;;;;;;12.30;6.00;;;;;;;;;;5072428;28;20067;-77
2022/02/28 01:35:25;;;;;;;14.32;6.28;;;;;;;;;;5074425;28;20125;-78
2022/02/28 01:37:54;;;;;;;11.68;5.93;;;;;;;;;;5076125;28;20063;-77
2022/02/28 01:40:22;;;;;;;13.23;5.93;;;;;;;;;;5072326;28;20146;-77
2022/02/28 01:42:50;;;;;;;13.98;5.63;;;;;;;;;;5076936;28;20040;-77
2022/02/28 01:45:21;;;;;;;14.32;6.00;;;;;;;;;;5072171;28;20591;-77
2022/02/28 01:47:49;;;;;;;13.25;6.28;;;;;;;;;;5071753;28;20063;-78
2022/02/28 01:50:17;;;;;;;13.25;6.45;;;;;;;;;;5069648;28;20543;-77
2022/02/28 01:52:45;;;;;;;10.73;5.55;;;;;;;;;;5070085;28;20050;-78
2022/02/28 01:55:14;;;;;;;13.05;6.00;;;;;;;;;;5068776;28;20044;-77
2022/02/28 01:57:46;;;;;;;11.38;6.28;;;;;;;;;;5070835;28;20162;-78
2022/02/28 02:00:15;;;;;;;12.32;5.65;;;;;;;;;;5070165;28;20832;-77
2022/02/28 02:02:44;;;;;;;10.18;5.32;;;;;;;;;;5074061;28;20042;-78
2022/02/28 02:05:12;;;;;;;12.10;5.53;;;;;;;;;;5070194;28;20040;-78
2022/02/28 02:07:40;;;;;;;15.43;6.22;;;;;;;;;;5072018;28;20066;-78
2022/02/28 02:10:09;;;;;;;11.20;5.90;;;;;;;;;;5071295;28;20509;-78
2022/02/28 02:12:38;;;;;;;12.18;5.97;;;;;;;;;;5070465;28;20511;-77
2022/02/28 02:15:07;;;;;;;14.43;6.25;;;;;;;;;;5071763;28;20048;-80
2022/02/28 02:17:39;;;;;;;13.27;6.20;;;;;;;;;;5074730;28;20642;-79
2022/02/28 02:20:09;;;;;;;10.48;5.60;;;;;;;;;;5066647;28;20313;-77
2022/02/28 02:22:38;;;;;;;14.82;6.13;;;;;;;;;;5072392;28;20047;-78
2022/02/28 02:25:08;;;;;;;13.02;6.15;;;;;;;;;;5067946;28;20606;-78
2022/02/28 02:27:35;;;;;;;12.98;6.18;;;;;;;;;;5071229;28;20084;-78
2022/02/28 02:30:03;;;;;;;10.63;5.53;;;;;;;;;;5067301;28;20616;-78
2022/02/28 02:32:31;;;;;;;11.75;5.82;;;;;;;;;;5071539;28;20337;-77
2022/02/28 02:34:58;;;;;;;14.45;6.47;;;;;;;;;;5072412;28;20052;-78
2022/02/28 02:37:27;;;;;;;14.38;6.50;;;;;;;;;;5069399;28;20059;-78
2022/02/28 02:39:55;;;;;;;13.70;6.43;;;;;;;;;;5070896;28;20076;-78
2022/02/28 02:42:23;;;;;;;12.88;5.95;;;;;;;;;;5071995;28;20052;-73
2022/02/28 02:44:50;;;;;;;11.25;5.65;;;;;;;;;;5074550;28;20749;-73
2022/02/28 02:47:18;;;;;;;13.57;6.20;;;;;;;;;;5072015;28;20055;-73
2022/02/28 02:49:46;;;;;;;16.52;6.10;;;;;;;;;;5070148;28;20071;-73
2022/02/28 02:52:17;;;;;;;12.30;6.30;;;;;;;;;;5071356;28;20051;-73
2022/02/28 02:54:45;;;;;;;13.55;6.05;;;;;;;;;;5069251;28;20079;-73
2022/02/28 02:57:13;;;;;;;10.95;5.65;;;;;;;;;;5072056;28;20040;-73
2022/02/28 02:59:41;;;;;;;13.05;6.20;;;;;;;;;;5076216;28;20403;-74
2022/02/28 03:02:09;;;;;;;11.25;5.80;;;;;;;;;;5067380;28;20147;-73
2022/02/28 03:04:37;;;;;;;12.50;6.13;;;;;;;;;;5070753;28;20089;-73
2022/02/28 03:07:13;;;;;;;16.58;7.00;;;;;;;;;;5069048;28;20051;-73
2022/02/28 03:09:41;;;;;;;12.05;5.70;;;;;;;;;;5072232;28;20054;-74
2022/02/28 03:12:10;;;;;;;13.30;6.72;;;;;;;;;;5068579;28;20111;-73
2022/02/28 03:14:38;;;;;;;16.60;6.82;;;;;;;;;;5071464;28;20075;-73
2022/02/28 03:17:06;;;;;;;12.10;6.05;;;;;;;;;;5070370;28;20292;-73
2022/02/28 03:19:34;;;;;;;14.48;6.45;;;;;;;;;;5075552;28;20047;-73
2022/02/28 03:22:01;;;;;;;13.02;5.78;;;;;;;;;;5071769;28;20213;-73
2022/02/28 03:24:29;;;;;;;15.48;6.68;;;;;;;;;;5074897;28;20048;-72
2022/02/28 03:26:58;;;;;;;15.50;6.40;;;;;;;;;;5070242;28;20765;-73
2022/02/28 03:29:28;;;;;;;11.55;5.70;;;;;;;;;;5076085;28;20048;-73
2022/02/28 03:31:55;;;;;;;16.05;6.47;;;;;;;;;;5068608;28;20135;-73
2022/02/28 03:34:23;;;;;;;15.30;6.50;;;;;;;;;;5074692;28;20051;-72
2022/02/28 03:36:51;;;;;;;14.07;6.25;;;;;;;;;;5071958;28;20048;-72
2022/02/28 03:39:18;;;;;;;13.45;6.15;;;;;;;;;;5070366;28;20060;-73
2022/02/28 03:41:46;;;;;;;11.88;6.05;;;;;;;;;;5073114;28;20051;-73
2022/02/28 03:44:14;;;;;;;11.55;5.93;;;;;;;;;;5071329;28;20079;-72
2022/02/28 03:46:44;;;;;;;14.57;6.28;;;;;;;;;;5073769;28;20044;-72
2022/02/28 03:49:11;;;;;;;15.25;7.22;;;;;;;;;;5071694;28;20151;-73
2022/02/28 03:51:39;;;;;;;12.77;6.45;;;;;;;;;;5072680;28;20196;-72
2022/02/28 03:54:11;;;;;;;14.10;6.30;;;;;;;;;;5071312;28;20047;-72
2022/02/28 03:56:39;;;;;;;11.98;6.75;;;;;;;;;;5071076;28;20048;-72
2022/02/28 03:59:06;;;;;;;15.93;7.05;;;;;;;;;;5072496;28;20052;-74
2022/02/28 04:01:36;;;;;;;11.80;5.40;;;;;;;;;;5070389;28;20222;-74
2022/02/28 04:04:05;;;;;;;15.35;7.25;;;;;;;;;;5067560;28;20040;-73
2022/02/28 04:06:35;;;;;;;13.07;7.18;;;;;;;;;;5068057;28;20048;-72
2022/02/28 04:09:04;;;;;;;15.35;6.28;;;;;;;;;;5070659;28;20098;-74
2022/02/28 04:11:33;;;;;;;13.20;6.15;;;;;;;;;;5075482;28;20054;-72
2022/02/28 04:14:01;;;;;;;14.77;7.07;;;;;;;;;;5077012;28;20499;-72
2022/02/28 04:16:30;;;;;;;13.77;6.20;;;;;;;;;;5076604;28;20059;-78
2022/02/28 04:18:58;;;;;;;10.65;6.20;;;;;;;;;;5074519;28;20488;-79
2022/02/28 04:21:27;;;;;;;14.85;6.20;;;;;;;;;;5077545;28;20054;-79
2022/02/28 04:23:55;;;;;;;13.57;6.50;;;;;;;;;;5075803;28;20052;-79
2022/02/28 04:26:23;;;;;;;12.38;6.13;;;;;;;;;;5075582;28;20048;-79
2022/02/28 04:28:50;;;;;;;13.23;6.25;;;;;;;;;;5077203;28;20052;-79
2022/02/28 04:31:18;;;;;;;14.15;6.78;;;;;;;;;;5073880;28;20052;-72
2022/02/28 04:33:46;;;;;;;13.15;6.50;;;;;;;;;;5074863;28;20064;-72
2022/02/28 04:36:15;;;;;;;13.18;5.97;;;;;;;;;;5072382;28;20044;-72
2022/02/28 04:38:44;;;;;;;14.45;6.63;;;;;;;;;;5075278;28;20036;-71
2022/02/28 04:41:12;;;;;;;14.95;6.50;;;;;;;;;;5072796;28;20081;-73
2022/02/28 04:43:39;;;;;;;16.52;6.22;;;;;;;;;;5074579;28;20125;-72
2022/02/28 04:46:07;;;;;;;14.25;6.80;;;;;;;;;;5070059;28;20048;-73
2022/02/28 04:48:35;;;;;;;12.88;6.15;;;;;;;;;;5078037;28;20075;-72
2022/02/28 04:51:02;;;;;;;13.82;6.78;;;;;;;;;;5074870;28;20175;-72
2022/02/28 04:53:30;;;;;;;15.30;7.78;;;;;;;;;;5072066;28;20129;-72
2022/02/28 04:55:59;;;;;;;14.05;6.18;;;;;;;;;;5077128;28;20171;-72
2022/02/28 04:58:27;;;;;;;14.73;6.10;;;;;;;;;;5072997;28;20052;-73
2022/02/28 05:00:55;;;;;;;17.23;6.65;;;;;;;;;;5073080;28;20065;-73
2022/02/28 05:03:23;;;;;;;13.65;7.18;;;;;;;;;;5078248;28;20066;-72
2022/02/28 05:05:51;;;;;;;11.57;6.13;;;;;;;;;;5078146;28;20523;-72
2022/02/28 05:08:19;;;;;;;13.48;6.07;;;;;;;;;;5072001;28;20062;-73
2022/02/28 05:10:47;;;;;;;13.55;6.75;;;;;;;;;;5073801;28;20254;-74
2022/02/28 05:13:16;;;;;;;12.73;6.07;;;;;;;;;;5075370;28;20151;-72
2022/02/28 05:15:43;;;;;;;14.80;7.45;;;;;;;;;;5074246;28;20056;-72
2022/02/28 05:18:11;;;;;;;12.68;6.20;;;;;;;;;;5071124;28;20043;-74
2022/02/28 05:20:39;;;;;;;17.92;6.57;;;;;;;;;;5075773;28;20080;-72
2022/02/28 05:23:07;;;;;;;14.30;5.93;;;;;;;;;;5069899;28;20125;-72
2022/02/28 05:25:58;;;;;;;14.88;6.63;;;;;;;;;;5075867;28;20171;-73
2022/02/28 05:28:39;;;;;;;13.95;6.75;;;;;;;;;;5070489;28;20059;-72
2022/02/28 05:31:07;;;;;;;15.05;6.97;;;;;;;;;;5071991;28;20051;-72
2022/02/28 05:33:35;;;;;;;14.63;6.25;;;;;;;;;;5072549;28;20076;-71
2022/02/28 05:36:04;;;;;;;10.93;6.53;;;;;;;;;;5070936;28;20059;-72
2022/02/28 05:38:55;;;;;;;12.13;6.20;;;;;;;;;;5070761;28;20058;-72
2022/02/28 05:41:24;;;;;;;11.40;5.70;;;;;;;;;;5067783;28;20143;-72
2022/02/28 05:43:53;;;;;;;15.15;6.57;;;;;;;;;;5071043;28;20859;-72
2022/02/28 05:46:21;;;;;;;16.75;6.55;;;;;;;;;;5073999;28;20059;-72
2022/02/28 05:48:49;;;;;;;13.38;6.38;;;;;;;;;;5074493;28;20040;-78
2022/02/28 05:51:17;;;;;;;12.13;6.22;;;;;;;;;;5073422;28;20215;-78
2022/02/28 05:53:45;;;;;;;13.57;6.20;;;;;;;;;;5072328;28;20657;-78
2022/02/28 05:56:13;;;;;;;18.63;6.97;;;;;;;;;;5067745;28;20037;-77
2022/02/28 05:58:40;;;;;;;13.15;6.32;;;;;;;;;;5072826;28;20067;-78
2022/02/28 06:01:09;;;;;;;15.52;6.63;;;;;;;;;;5072410;28;20154;-78
2022/02/28 06:03:37;;;;;;;10.77;5.55;;;;;;;;;;5072649;28;20055;-78
2022/02/28 06:06:05;;;;;;;15.18;6.63;;;;;;;;;;5072685;28;20052;-78
2022/02/28 06:08:56;;;;;;;13.20;7.03;;;;;;;;;;5070411;28;20059;-77
2022/02/28 06:11:25;;;;;;;15.77;6.47;;;;;;;;;;5073517;28;20059;-79
2022/02/28 06:13:53;;;;;;;12.40;6.28;;;;;;;;;;5072958;28;20147;-79
2022/02/28 06:16:22;;;;;;;13.35;6.60;;;;;;;;;;5070239;28;20993;-79
2022/02/28 06:18:50;;;;;;;14.85;6.53;;;;;;;;;;5070692;28;20135;-80
2022/02/28 06:21:19;;;;;;;13.88;6.22;;;;;;;;;;5073372;28;20721;-73
2022/02/28 06:23:48;;;;;;;12.38;5.90;;;;;;;;;;5077074;28;20056;-71
2022/02/28 06:26:16;;;;;;;11.50;5.93;;;;;;;;;;5076191;28;20048;-72
2022/02/28 06:29:07;;;;;;;11.65;5.93;;;;;;;;;;5076650;28;20091;-73
2022/02/28 06:31:42;;;;;;;13.32;5.95;;;;;;;;;;5070717;28;20760;-73
2022/02/28 06:34:11;;;;;;;14.70;6.22;;;;;;;;;;5072913;28;20048;-73
2022/02/28 06:36:39;;;;;;;12.63;6.32;;;;;;;;;;5073007;28;20040;-73
2022/02/28 06:39:07;;;;;;;15.25;6.20;;;;;;;;;;5072592;28;20060;-73
2022/02/28 06:41:35;;;;;;;11.85;6.20;;;;;;;;;;5074683;28;20094;-73
2022/02/28 06:45:10;;;;;;;17.02;6.72;;;;;;;;;;5053850;27;20403;-72
2022/02/28 06:47:38;;;;;;;14.45;5.93;;;;;;;;;;5046620;28;20132;-73
2022/02/28 06:50:07;;;;;;;15.30;6.68;;;;;;;;;;5048122;28;20073;-72
2022/02/28 06:52:34;;;;;;;15.30;6.68;;;;;;;;;;5042623;28;20162;-73
2022/02/28 06:55:02;;;;;;;15.02;6.55;;;;;;;;;;5043594;28;20059;-73
2022/02/28 06:57:30;;;;;;;11.75;6.53;;;;;;;;;;5047140;28;20519;-73
2022/02/28 06:59:58;;;;;;;13.38;6.40;;;;;;;;;;5043215;28;20075;-72
2022/02/28 07:02:27;;;;;;;13.25;6.57;;;;;;;;;;5045424;28;20049;-73
2022/02/28 07:04:55;;;;;;;17.58;6.47;;;;;;;;;;4994863;28;20132;-73
2022/02/28 07:07:23;;;;;;;14.85;6.65;;;;;;;;;;5047451;28;20059;-72
2022/02/28 07:09:50;;;;;;;15.02;6.78;;;;;;;;;;5049682;28;20057;-73
2022/02/28 07:12:21;;;;;;;16.05;6.50;;;;;;;;;;5044106;28;20151;-71
2022/02/28 07:14:49;;;;;;;13.35;6.82;;;;;;;;;;5042852;28;20057;-72
2022/02/28 07:17:17;;;;;;;13.27;6.53;;;;;;;;;;5045746;28;20583;-72
2022/02/28 07:19:46;;;;;;;14.43;6.97;;;;;;;;;;5045197;28;20045;-73
2022/02/28 07:22:14;;;;;;;13.20;6.00;;;;;;;;;;5047354;28;20047;-71
2022/02/28 07:24:41;;;;;;;14.90;6.78;;;;;;;;;;5048423;28;20044;-71
2022/02/28 07:27:09;;;;;;;15.23;6.30;;;;;;;;;;5050774;28;20082;-72
2022/02/28 07:29:37;;;;;;;11.50;6.32;;;;;;;;;;5049881;28;20059;-72
2022/02/28 07:32:05;;;;;;;15.00;6.80;;;;;;;;;;5051023;28;20052;-72
2022/02/28 07:34:32;;;;;;;10.50;5.82;;;;;;;;;;5052954;28;20053;-72
2022/02/28 07:37:01;;;;;;;15.50;6.47;;;;;;;;;;5055144;28;20076;-72
2022/02/28 07:39:29;;;;;;;15.38;7.10;;;;;;;;;;5051946;28;20493;-73
2022/02/28 07:42:00;;;;;;;14.50;5.88;;;;;;;;;;5052011;28;20147;-72
2022/02/28 07:44:27;;;;;;;13.65;6.40;;;;;;;;;;5050516;28;20048;-72
2022/02/28 07:46:55;;;;;;;14.57;6.47;;;;;;;;;;5049839;28;20519;-72
2022/02/28 07:49:23;;;;;;;11.48;6.43;;;;;;;;;;5050510;28;20052;-71
2022/02/28 07:51:52;;;;;;;14.75;7.00;;;;;;;;;;5050219;28;20075;-72
2022/02/28 07:54:21;;;;;;;16.30;7.25;;;;;;;;;;5049858;28;20041;-71
2022/02/28 07:56:48;;;;;;;14.57;7.00;;;;;;;;;;5040464;28;20547;-72
2022/02/28 07:59:20;;;;;;;13.57;6.20;;;;;;;;;;5040197;28;20061;-72
2022/02/28 08:01:48;;;;;;;13.35;6.90;;;;;;;;;;5038466;28;20049;-73
2022/02/28 08:04:17;;;;;;;16.48;7.47;;;;;;;;;;5036044;28;20118;-71
2022/02/28 08:06:44;;;;;;;15.15;6.95;;;;;;;;;;5034634;28;20105;-71
2022/02/28 08:09:38;;;;;;;12.93;6.65;;;;;;;;;;5036572;28;20171;-71
2022/02/28 08:12:06;;;;;;;15.77;6.85;;;;;;;;;;5035786;28;20052;-73
2022/02/28 08:14:35;;;;;;;14.55;7.68;;;;;;;;;;5030747;28;20049;-73
2022/02/28 08:17:03;;;;;;;13.18;6.93;;;;;;;;;;5033594;28;20064;-72
2022/02/28 08:19:31;;;;;;;15.80;7.57;;;;;;;;;;5038070;28;20049;-73
2022/02/28 08:21:59;;;;;;;16.15;7.00;;;;;;;;;;5033446;28;20168;-73
2022/02/28 08:24:26;;;;;;;12.63;6.43;;;;;;;;;;5036221;28;20144;-73
2022/02/28 08:26:55;;;;;;;14.25;7.63;;;;;;;;;;5033042;28;20050;-73
2022/02/28 08:29:23;;;;;;;14.77;7.03;;;;;;;;;;5035341;28;20216;-73
2022/02/28 08:31:51;;;;;;;15.80;6.72;;;;;;;;;;5038467;28;20076;-73
2022/02/28 08:34:19;;;;;;;14.77;7.32;;;;;;;;;;5033528;28;20104;-74
2022/02/28 08:36:47;;;;;;;14.45;7.18;;;;;;;;;;5035101;28;20075;-74
2022/02/28 08:39:14;;;;;;;13.80;7.10;;;;;;;;;;5035872;28;20049;-73
2022/02/28 08:41:42;;;;;;;14.52;6.68;;;;;;;;;;5034138;28;20045;-72
2022/02/28 08:44:11;;;;;;;14.02;7.13;;;;;;;;;;5029993;28;20162;-72
2022/02/28 08:46:39;;;;;;;14.02;6.45;;;;;;;;;;5031768;28;20049;-74
2022/02/28 08:49:08;;;;;;;16.63;8.05;;;;;;;;;;5034214;28;20492;-72
2022/02/28 08:51:37;;;;;;;14.30;6.28;;;;;;;;;;5034400;28;20558;-72
2022/02/28 08:54:05;;;;;;;15.90;6.55;;;;;;;;;;5031851;28;20056;-72
2022/02/28 08:56:33;;;;;;;11.93;6.65;;;;;;;;;;5033380;28;20060;-74
2022/02/28 08:59:01;;;;;;;14.60;6.65;;;;;;;;;;5029928;28;20077;-73
2022/02/28 09:01:30;;;;;;;18.38;6.68;;;;;;;;;;5028342;28;20148;-73
2022/02/28 09:03:58;;;;;;;13.63;7.15;;;;;;;;;;5035999;28;20128;-73
2022/02/28 09:06:25;;;;;;;14.60;7.78;;;;;;;;;;5032131;28;20079;-72
2022/02/28 09:08:53;;;;;;;16.17;7.10;;;;;;;;;;5032135;28;20095;-73
2022/02/28 09:11:22;;;;;;;18.33;8.55;;;;;;;;;;5035466;28;20069;-73
2022/02/28 09:13:50;;;;;;;15.25;7.60;;;;;;;;;;5031710;28;20041;-73
2022/02/28 09:16:18;;;;;;;13.73;7.07;;;;;;;;;;5033270;28;20390;-73
2022/02/28 09:18:47;;;;;;;17.65;8.30;;;;;;;;;;5032933;28;20190;-72
2022/02/28 09:21:15;;;;;;;12.80;7.55;;;;;;;;;;5033194;28;20037;-72
2022/02/28 09:23:42;;;;;;;14.35;7.53;;;;;;;;;;5037678;28;20192;-73
2022/02/28 09:26:10;;;;;;;13.55;7.13;;;;;;;;;;5032930;28;20053;-72
2022/02/28 09:28:38;;;;;;;14.00;7.25;;;;;;;;;;5033106;28;20065;-73
2022/02/28 09:31:07;;;;;;;16.70;6.95;;;;;;;;;;5036193;28;20057;-74
2022/02/28 09:33:35;;;;;;;14.20;7.95;;;;;;;;;;5033166;28;20080;-73
2022/02/28 09:36:04;;;;;;;13.45;7.85;;;;;;;;;;5036289;28;20053;-74
2022/02/28 09:38:31;;;;;;;13.68;7.10;;;;;;;;;;5034563;28;20080;-73
2022/02/28 09:41:19;;;;;;;18.98;7.72;;;;;;;;;;5033735;28;20057;-73
2022/02/28 09:43:47;;;;;;;16.98;7.65;;;;;;;;;;5035480;28;20231;-73
2022/02/28 09:46:16;;;;;;;12.57;7.28;;;;;;;;;;5035576;28;20037;-72
2022/02/28 09:49:03;;;;;;;14.40;7.28;;;;;;;;;;5034660;28;20057;-73
2022/02/28 09:51:34;;;;;;;13.88;7.32;;;;;;;;;;5037603;28;20086;-72
2022/02/28 09:54:01;;;;;;;14.90;7.40;;;;;;;;;;5034382;28;20063;-75
2022/02/28 09:56:32;;;;;;;18.75;7.60;;;;;;;;;;5033043;28;20114;-72
2022/02/28 09:58:59;;;;;;;12.57;6.65;;;;;;;;;;5037279;28;20041;-75
2022/02/28 10:01:48;;;;;;;15.05;6.82;;;;;;;;;;5037142;28;20053;-75
2022/02/28 10:04:17;;;;;;;14.57;6.97;;;;;;;;;;5031828;28;20045;-74
2022/02/28 10:06:46;;;;;;;14.20;7.63;;;;;;;;;;5034563;28;20051;-75
2022/02/28 10:09:17;;;;;;;13.18;7.68;;;;;;;;;;5036878;28;20185;-73
2022/02/28 10:11:47;;;;;;;12.98;7.00;;;;;;;;;;5035925;28;20060;-75
2022/02/28 10:14:16;;;;;;;13.10;6.80;;;;;;;;;;5031681;28;20555;-75
2022/02/28 10:17:09;;;;;;;13.10;6.85;;;;;;;;;;5036738;28;20500;-74
2022/02/28 10:19:36;;;;;;;17.13;7.85;;;;;;;;;;5031118;28;20052;-74
2022/02/28 10:22:06;;;;;;;12.77;6.55;;;;;;;;;;5027298;28;20107;-74
2022/02/28 10:24:36;;;;;;;14.63;6.85;;;;;;;;;;5034070;28;20122;-74
2022/02/28 10:27:04;;;;;;;14.65;7.45;;;;;;;;;;5036246;28;20045;-74
2022/02/28 10:29:34;;;;;;;13.85;7.70;;;;;;;;;;5030418;28;20134;-74
2022/02/28 10:32:03;;;;;;;15.02;7.28;;;;;;;;;;5032262;28;20057;-74
2022/02/28 10:35:59;;;;;;;14.38;7.60;;;;;;;;;;5030661;28;20140;-74
2022/02/28 10:37:44;;;;;;;14.32;8.05;;;;;;;;;;5029891;28;20059;-74
2022/02/28 10:40:12;;;;;;;13.43;8.00;;;;;;;;;;5030099;28;20170;-74
2022/02/28 10:42:47;;;;;;;15.00;8.23;;;;;;;;;;5031952;28;20405;-74
2022/02/28 10:45:18;;;;;;;13.70;7.28;;;;;;;;;;5032044;28;20071;-74
2022/02/28 10:47:47;;;;;;;13.07;7.82;;;;;;;;;;5032765;28;20059;-76
2022/02/28 10:50:15;;;;;;;11.80;7.43;;;;;;;;;;5035591;28;20112;-75
2022/02/28 10:53:12;;;;;;;14.60;7.85;;;;;;;;;;5032637;28;20064;-75
2022/02/28 10:55:40;;;;;;;12.95;7.13;;;;;;;;;;5035432;28;20060;-74
2022/02/28 10:58:08;;;;;;;16.40;7.00;;;;;;;;;;5026109;28;20162;-75
2022/02/28 11:00:56;;;;;;;14.57;7.95;;;;;;;;;;5032044;28;20057;-74
2022/02/28 11:03:24;;;;;;;12.43;7.28;;;;;;;;;;5034883;28;21139;-74
2022/02/28 11:05:53;;;;;;;12.25;7.40;;;;;;;;;;5029769;28;20041;-74
2022/02/28 11:08:23;;;;;;;14.93;7.80;;;;;;;;;;5029685;28;20484;-74
2022/02/28 11:10:53;;;;;;;15.30;8.05;;;;;;;;;;5028868;28;20276;-74
2022/02/28 11:13:21;;;;;;;13.48;7.53;;;;;;;;;;5030661;28;20128;-74
2022/02/28 11:15:49;;;;;;;17.40;8.18;;;;;;;;;;5029647;28;20037;-74
2022/02/28 11:18:20;;;;;;;16.50;8.00;;;;;;;;;;5031778;28;20052;-75
2022/02/28 11:20:48;;;;;;;14.18;8.13;;;;;;;;;;5032824;28;20052;-75
2022/02/28 11:23:18;;;;;;;15.93;7.40;;;;;;;;;;5029202;28;20059;-74
2022/02/28 11:25:49;;;;;;;16.90;7.60;;;;;;;;;;5030381;28;20059;-74
2022/02/28 11:28:17;;;;;;;14.25;6.82;;;;;;;;;;5032569;28;20051;-75
2022/02/28 11:30:45;;;;;;;13.93;8.18;;;;;;;;;;5030011;28;20091;-74
2022/02/28 11:33:14;;;;;;;15.02;7.70;;;;;;;;;;5034116;28;20138;-74
2022/02/28 11:35:44;;;;;;;14.93;7.47;;;;;;;;;;5031312;28;20049;-74
2022/02/28 11:38:12;;;;;;;15.07;7.13;;;;;;;;;;5031781;28;20108;-74
2022/02/28 11:40:40;;;;;;;15.68;7.57;;;;;;;;;;5035679;28;20496;-75
2022/02/28 11:43:13;;;;;;;13.30;7.53;;;;;;;;;;5034270;28;20055;-75
2022/02/28 11:45:53;;;;;;;11.95;7.00;;;;;;;;;;5036341;28;20183;-75
2022/02/28 11:48:30;;;;;;;12.45;7.47;;;;;;;;;;5032600;28;20045;-75
2022/02/28 11:51:00;;;;;;;12.88;7.45;;;;;;;;;;5034848;28;20052;-75
2022/02/28 11:53:41;;;;;;;15.10;8.05;;;;;;;;;;5031551;28;20049;-75
2022/02/28 11:56:28;;;;;;;16.45;7.75;;;;;;;;;;5038403;28;20460;-73
2022/02/28 11:58:59;;;;;;;14.50;8.05;;;;;;;;;;5036293;28;20048;-73
2022/02/28 12:01:29;;;;;;;14.13;7.15;;;;;;;;;;5032432;28;20092;-73
2022/02/28 12:04:10;;;;;;;12.20;6.97;;;;;;;;;;5033835;28;20040;-74
2022/02/28 12:07:05;;;;;;;15.50;7.30;;;;;;;;;;5035085;28;20067;-75
2022/02/28 12:09:42;;;;;;;16.10;7.45;;;;;;;;;;5035131;28;20080;-73
2022/02/28 12:12:14;;;;;;;12.93;6.70;;;;;;;;;;5032865;28;20152;-74
2022/02/28 12:15:01;;;;;;;13.75;7.60;;;;;;;;;;5032203;28;20183;-74
2022/02/28 12:17:47;;;;;;;13.27;7.07;;;;;;;;;;5033231;28;20067;-74
2022/02/28 12:20:17;;;;;;;13.07;7.35;;;;;;;;;;5031454;28;20080;-73
2022/02/28 12:23:05;;;;;;;13.18;7.10;;;;;;;;;;5029743;28;20079;-73
2022/02/28 12:25:34;;;;;;;12.98;7.97;;;;;;;;;;5032713;28;20579;-73
2022/02/28 12:28:27;;;;;;;12.95;7.30;;;;;;;;;;5035344;28;20083;-73
2022/02/28 12:30:58;;;;;;;15.85;8.70;;;;;;;;;;5035302;28;20040;-74
2022/02/28 12:33:46;;;;;;;12.57;6.85;;;;;;;;;;5031638;28;20045;-75
2022/02/28 12:36:15;;;;;;;14.57;8.68;;;;;;;;;;5030895;28;20049;-74
2022/02/28 12:38:48;;;;;;;17.77;7.47;;;;;;;;;;5028530;28;20056;-74
2022/02/28 12:41:17;;;;;;;16.45;7.32;;;;;;;;;;5033260;28;20158;-74
2022/02/28 12:43:46;;;;;;;13.38;7.13;;;;;;;;;;5029566;28;20190;-74
2022/02/28 12:46:14;;;;;;;11.85;6.72;;;;;;;;;;5033171;28;20049;-74
2022/02/28 12:48:43;;;;;;;13.07;6.65;;;;;;;;;;5029129;28;20140;-74
2022/02/28 12:51:11;;;;;;;14.18;6.95;;;;;;;;;;5033000;28;20052;-74
2022/02/28 12:53:43;;;;;;;13.88;8.23;;;;;;;;;;5032892;28;20049;-74
2022/02/28 12:56:16;;;;;;;15.93;7.22;;;;;;;;;;5034120;28;20071;-73
2022/02/28 12:58:44;;;;;;;15.43;7.72;;;;;;;;;;5027684;28;20140;-73
2022/02/28 13:01:13;;;;;;;11.95;7.07;;;;;;;;;;5029933;28;20136;-73
2022/02/28 13:03:42;;;;;;;16.40;7.47;;;;;;;;;;5035691;28;20059;-73
2022/02/28 13:06:11;;;;;;;14.02;7.70;;;;;;;;;;5033739;28;20128;-74
2022/02/28 13:08:39;;;;;;;15.27;6.82;;;;;;;;;;5032918;28;20053;-75
2022/02/28 13:11:15;;;;;;;13.32;6.90;;;;;;;;;;5034047;28;20045;-72
2022/02/28 13:13:43;;;;;;;12.45;7.00;;;;;;;;;;5031018;28;20052;-74
2022/02/28 13:16:12;;;;;;;12.35;6.60;;;;;;;;;;5034288;28;20049;-72
2022/02/28 13:18:40;;;;;;;11.57;5.90;;;;;;;;;;5031757;28;20127;-73
2022/02/28 13:21:07;;;;;;;15.40;6.40;;;;;;;;;;5034616;28;20126;-73
2022/02/28 13:24:00;;;;;;;12.65;6.50;;;;;;;;;;5031802;28;20055;-73
2022/02/28 13:26:29;;;;;;;12.05;6.55;;;;;;;;;;5032327;28;20809;-73
2022/02/28 13:28:57;;;;;;;12.27;6.22;;;;;;;;;;5032733;28;20076;-73
2022/02/28 13:31:33;;;;;;;13.05;6.40;;;;;;;;;;5031399;28;20056;-73
2022/02/28 13:34:02;;;;;;;10.43;5.32;;;;;;;;;;5032738;28;20052;-73
2022/02/28 13:36:34;;;;;;;11.25;5.40;;;;;;;;;;5029818;28;20146;-73
2022/02/28 13:39:02;;;;;;;13.90;6.18;;;;;;;;;;5033280;28;20061;-75
2022/02/28 13:41:31;;;;;;;11.80;6.03;;;;;;;;;;5029732;28;20053;-74
2022/02/28 13:43:59;;;;;;;12.20;6.15;;;;;;;;;;5032247;28;20053;-74
2022/02/28 13:46:27;;;;;;;11.73;6.07;;;;;;;;;;5030470;28;20053;-74
2022/02/28 13:48:56;;;;;;;13.13;5.85;;;;;;;;;;5026860;28;20071;-75
2022/02/28 13:51:26;;;;;;;14.63;5.78;;;;;;;;;;5029980;28;20044;-74
2022/02/28 13:53:54;;;;;;;11.07;5.55;;;;;;;;;;5027270;28;20531;-74
2022/02/28 13:56:26;;;;;;;10.88;5.70;;;;;;;;;;5035643;28;20140;-74
2022/02/28 13:59:05;;;;;;;11.85;6.25;;;;;;;;;;5027450;28;20128;-75
2022/02/28 14:01:33;;;;;;;11.57;5.63;;;;;;;;;;5028817;28;20045;-73
2022/02/28 14:04:22;;;;;;;12.90;6.03;;;;;;;;;;5027952;28;20059;-76
2022/02/28 14:06:56;;;;;;;12.27;5.57;;;;;;;;;;5033388;28;20251;-73
2022/02/28 14:09:27;;;;;;;11.90;6.05;;;;;;;;;;5031216;28;20246;-73
2022/02/28 14:11:55;;;;;;;13.15;6.30;;;;;;;;;;5027944;28;20048;-73
2022/02/28 14:14:24;;;;;;;12.45;6.50;;;;;;;;;;5030815;28;20107;-74
2022/02/28 14:16:58;;;;;;;12.45;6.97;;;;;;;;;;5031712;28;20140;-73
2022/02/28 14:19:32;;;;;;;11.80;6.05;;;;;;;;;;5029727;28;20045;-73
2022/02/28 14:22:05;;;;;;;14.25;7.05;;;;;;;;;;5030173;28;20116;-73
2022/02/28 14:24:35;;;;;;;12.82;6.95;;;;;;;;;;5030704;28;20151;-73
2022/02/28 14:27:03;;;;;;;14.07;6.65;;;;;;;;;;5030952;28;20139;-74
2022/02/28 14:30:01;;;;;;;13.48;6.45;;;;;;;;;;5028152;28;20118;-74
2022/02/28 14:32:30;;;;;;;;;;;;;;;;;;5031497;28;20068;-73
2022/02/28 14:34:57;;;;;;;12.48;6.10;;;;;;;;;;5033647;28;19975;-73
2022/02/28 14:37:27;;;;;;;12.30;7.05;;;;;;;;;;5029440;28;20033;-73
2022/02/28 14:40:22;;;;;;;13.07;6.25;;;;;;;;;;5030280;28;20091;-74
2022/02/28 14:42:50;;;;;;;10.82;6.20;;;;;;;;;;5027435;28;20048;-73
2022/02/28 14:45:21;;;;;;;10.57;6.60;;;;;;;;;;5030163;28;20041;-74
2022/02/28 14:47:49;;;;;;;10.45;5.88;;;;;;;;;;5031479;28;20049;-74
2022/02/28 14:50:17;;;;;;;10.20;5.72;;;;;;;;;;5035728;28;20049;-75